Buoy 46770

sailwx.info

Track history (hours):
 
Tides and Currents Weather Stations Pressure Air Temp Water Temp Dewpoint Dewpoint Depression Visibility Wind Speed Wind Dir Waves Ship Positions

Drifting buoy 46770

Last reported at 2014-Sep-01 12:30 UTC. Time now 2014-Sep-01 13:53 UTC.
Position N 51°59' E 170°43'.

Barometer 1022.6 mb
Water temperature 11.5 ° C

Date/timePositionNaut miles runAvg speedWind from/ knotsBaromVisibWave heightAir tempDewpointWater temp
2014-Sep-01 12:30N 51°59' E 170°43'0 0.0 1022.6 11.5
2014-Sep-01 10:30N 51°59' E 170°43'1 0.9 1022.9 11.5
2014-Sep-01 09:30N 51°59' E 170°42'1 1.0 1023.3 11.5
2014-Sep-01 08:30N 51°59' E 170°41'1 0.4 1023.4 11.5
2014-Sep-01 06:30N 51°59' E 170°39'1 0.2 1022.9 11.6
2014-Sep-01 01:30N 51°59' E 170°37'0 0.2 1023.8 11.5
2014-Aug-31 23:30N 51°60' E 170°37'2 1.2 1024.1 11.4
2014-Aug-31 21:30N 52°01' E 170°33'0 0.0 1024.2 11.3
2014-Aug-31 20:30N 52°01' E 170°33'2 0.5 1024.1 11.3
2014-Aug-31 16:30N 52°00' E 170°30'0 0.4 1023.2 11.3
2014-Aug-31 15:30N 52°00' E 170°29'2 0.4 1022.9 11.3
2014-Aug-31 09:30N 52°01' E 170°26'0 0.4 1022.2 11.3
2014-Aug-31 08:30N 52°02' E 170°25'1 0.6 1021.7 11.3
2014-Aug-31 06:30N 52°02' E 170°23'2 1.8 1020.7 11.3
2014-Aug-31 05:30N 52°02' E 170°21'0 0.2 1020.5 11.3
2014-Aug-31 03:30N 52°02' E 170°20'2 0.7 1019.9 11.3
2014-Aug-31 00:30N 52°02' E 170°17'0 0.0 1019.4 11.3
2014-Aug-30 22:30N 52°02' E 170°17'2 0.4 1019.3 11.2
2014-Aug-30 17:30N 52°03' E 170°14'1 0.3 1017.5 11.3
2014-Aug-30 15:30N 52°03' E 170°13'5 0.8 1017.1 11.3
2014-Aug-30 08:30N 52°04' E 170°05'1 0.4 1015.8 11.3
2014-Aug-30 05:30N 52°04' E 170°03'1 0.5 1014.1 11.4
2014-Aug-30 03:30N 52°03' E 170°02'0 0.0 1013.3 11.4
2014-Aug-30 02:30N 52°03' E 170°02'1 0.5 1012.9 11.3
2014-Aug-30 01:30N 52°03' E 170°02'1 1.0 1012.5 11.3
2014-Aug-30 00:30N 52°04' E 170°01'0 0.0 1012.2 11.3
2014-Aug-29 23:30N 52°04' E 170°01'5 0.6 1011.7 11.2
2014-Aug-29 15:30N 52°03' E 169°53'1 0.2 1006.9 11.4
2014-Aug-29 09:30N 52°03' E 169°51'1 0.5 1004.6 11.6
2014-Aug-29 07:30N 52°04' E 169°49'4 1.0 1002.8 11.8
2014-Aug-29 03:30N 52°03' E 169°43'0 0.0 1000.3 12.0
2014-Aug-29 02:30N 52°03' E 169°43'1 0.6 1000.3 11.9
2014-Aug-29 00:30N 52°02' E 169°42'1 0.4 1000.0 11.4
2014-Aug-28 21:30N 52°01' E 169°40'0 0.1 1000.0 11.2
2014-Aug-28 18:30N 52°01' E 169°39'0 0.0 999.6 11.1
2014-Aug-28 17:30N 52°01' E 169°39'4 1.3 999.6 11.1
2014-Aug-28 14:30N 52°01' E 169°33'3 3.3 1000.3 11.1
2014-Aug-28 13:30N 51°59' E 169°29'0 0.0 1000.3 11.1
2014-Aug-28 12:30N 51°59' E 169°29'2 0.4 1000.6 11.1
2014-Aug-28 07:30N 51°57' E 169°29'0 0.0 1000.5 11.1
2014-Aug-28 04:30N 51°57' E 169°29'3 1.1 1000.0 11.1
2014-Aug-28 01:30N 51°58' E 169°24'0 0.0 1000.5 11.0
2014-Aug-27 23:30N 51°58' E 169°24'7 1.3 1001.1 10.9
2014-Aug-27 18:30N 51°52' E 169°18'2 0.4 1002.5 10.9
2014-Aug-27 13:30N 51°50' E 169°16'1 0.3 1005.7 11.0
2014-Aug-27 09:30N 51°50' E 169°15'2 1.8 1007.6 11.0
2014-Aug-27 08:30N 51°49' E 169°12'6 1.2 1008.1 11.0
2014-Aug-27 03:30N 51°43' E 169°10'2 0.8 1007.0 11.1
2014-Aug-27 01:30N 51°42' E 169°11'0 0.1 1006.9 11.1
2014-Aug-26 21:30N 51°42' E 169°11'0 0.0 1007.8 11.1
2014-Aug-26 20:30N 51°42' E 169°11'0 0.0 1007.9 11.1
2014-Aug-26 19:30N 51°42' E 169°11'1 0.6 1008.1 11.1
2014-Aug-26 18:30N 51°42' E 169°10'1 1.1 1007.9 11.1
2014-Aug-26 17:30N 51°42' E 169°08'5 5.2 1008.2 11.1
2014-Aug-26 16:30N 51°38' E 169°03'4 3.6 1008.3 11.1
2014-Aug-26 15:30N 51°41' E 169°06'8 1.6 1008.6 11.1
2014-Aug-26 10:30N 51°33' E 169°06'1 0.3 1011.0 11.1
2014-Aug-26 08:30N 51°33' E 169°06'0 0.0 1011.5 11.1
2014-Aug-26 07:30N 51°33' E 169°06'2 0.5 1011.3 11.2
2014-Aug-26 02:30N 51°33' E 169°03'2 2.1 1011.8 11.2
2014-Aug-26 01:30N 51°32' E 168°59'8 1.1 1012.0 11.1
2014-Aug-25 18:30N 51°24' E 168°59'2 1.6 1010.4 11.1
2014-Aug-25 17:30N 51°24' E 169°01'0 0.1 1009.8 11.1
2014-Aug-25 16:30N 51°24' E 169°01'1 0.8 1009.2 11.1
2014-Aug-25 15:30N 51°24' E 169°02'6 0.9 1008.9 11.1
2014-Aug-25 09:30N 51°21' E 168°54'0 0.2 1008.1 11.1
2014-Aug-25 08:30N 51°21' E 168°55'0 0.0 1007.7 11.1
2014-Aug-25 07:30N 51°21' E 168°55'9 4.7 1007.1 11.1
2014-Aug-25 05:30N 51°13' E 169°01'0 0.0 1006.9 11.2
2014-Aug-25 03:30N 51°13' E 169°01'0 0.0 1007.2 11.2
2014-Aug-25 02:30N 51°13' E 169°01'1 0.2 1007.5 11.3
2014-Aug-24 22:30N 51°12' E 169°01'2 0.7 1011.5 11.6
2014-Aug-24 19:30N 51°11' E 168°58'2 1.8 1013.3 11.6
2014-Aug-24 18:30N 51°09' E 168°57'0 0.0 1013.6 11.6
2014-Aug-24 17:30N 51°09' E 168°57'1 0.3 1014.2 11.6
2014-Aug-24 15:30N 51°09' E 168°56'6 1.0 1015.6 11.6
2014-Aug-24 09:30N 51°03' E 169°00'1 0.2 1017.2 11.7
2014-Aug-24 06:30N 51°04' E 169°01'1 0.6 1016.5 11.8
2014-Aug-24 04:30N 51°03' E 168°60'1 0.4 1016.0 11.8
2014-Aug-24 02:30N 51°03' E 168°59'2 1.0 1016.4 11.8
2014-Aug-24 00:30N 51°01' E 168°57'6 1.1 1016.7 11.7
2014-Aug-23 18:30N 50°56' E 169°04'1 0.3 1015.5 11.6
2014-Aug-23 16:30N 50°56' E 169°05'0 0.1 1015.2 11.6
2014-Aug-23 12:30N 50°56' E 169°05'3 1.1 1016.1 11.7
2014-Aug-23 09:30N 50°54' E 169°01'6 1.9 1015.9 11.8
2014-Aug-23 06:30N 50°49' E 169°07'0 0.0 1014.8 11.9
2014-Aug-23 03:30N 50°49' E 169°07'2 1.1 1014.2 11.9
2014-Aug-23 01:30N 50°50' E 169°10'1 0.2 1014.2 11.7
2014-Aug-22 19:30N 50°50' E 169°09'1 0.5 1012.8 11.3
2014-Aug-22 17:30N 50°49' E 169°08'1 1.3 1012.0 11.3
2014-Aug-22 16:30N 50°48' E 169°09'   1011.8 11.3
Track history (hours):
 
Tides and Currents Weather Stations Pressure Air Temp Water Temp Dewpoint Dewpoint Depression Visibility Wind Speed Wind Dir Waves Ship Positions

Drifting buoy 46770

Last reported at 2014-Sep-01 12:30 UTC. Time now 2014-Sep-01 13:53 UTC.
Position N 51°59' E 170°43'.

Barometer 1022.6 mb
Water temperature 11.5 ° C

Date/timePositionNaut miles runAvg speedWind from/ knotsBaromVisibWave heightAir tempDewpointWater temp
2014-Sep-01 12:30N 51°59' E 170°43'0 0.0 1022.6 11.5
2014-Sep-01 10:30N 51°59' E 170°43'1 0.9 1022.9 11.5
2014-Sep-01 09:30N 51°59' E 170°42'1 1.0 1023.3 11.5
2014-Sep-01 08:30N 51°59' E 170°41'1 0.4 1023.4 11.5
2014-Sep-01 06:30N 51°59' E 170°39'1 0.2 1022.9 11.6
2014-Sep-01 01:30N 51°59' E 170°37'0 0.2 1023.8 11.5
2014-Aug-31 23:30N 51°60' E 170°37'2 1.2 1024.1 11.4
2014-Aug-31 21:30N 52°01' E 170°33'0 0.0 1024.2 11.3
2014-Aug-31 20:30N 52°01' E 170°33'2 0.5 1024.1 11.3
2014-Aug-31 16:30N 52°00' E 170°30'0 0.4 1023.2 11.3
2014-Aug-31 15:30N 52°00' E 170°29'2 0.4 1022.9 11.3
2014-Aug-31 09:30N 52°01' E 170°26'0 0.4 1022.2 11.3
2014-Aug-31 08:30N 52°02' E 170°25'1 0.6 1021.7 11.3
2014-Aug-31 06:30N 52°02' E 170°23'2 1.8 1020.7 11.3
2014-Aug-31 05:30N 52°02' E 170°21'0 0.2 1020.5 11.3
2014-Aug-31 03:30N 52°02' E 170°20'2 0.7 1019.9 11.3
2014-Aug-31 00:30N 52°02' E 170°17'0 0.0 1019.4 11.3
2014-Aug-30 22:30N 52°02' E 170°17'2 0.4 1019.3 11.2
2014-Aug-30 17:30N 52°03' E 170°14'1 0.3 1017.5 11.3
2014-Aug-30 15:30N 52°03' E 170°13'5 0.8 1017.1 11.3
2014-Aug-30 08:30N 52°04' E 170°05'1 0.4 1015.8 11.3
2014-Aug-30 05:30N 52°04' E 170°03'1 0.5 1014.1 11.4
2014-Aug-30 03:30N 52°03' E 170°02'0 0.0 1013.3 11.4
2014-Aug-30 02:30N 52°03' E 170°02'1 0.5 1012.9 11.3
2014-Aug-30 01:30N 52°03' E 170°02'1 1.0 1012.5 11.3
2014-Aug-30 00:30N 52°04' E 170°01'0 0.0 1012.2 11.3
2014-Aug-29 23:30N 52°04' E 170°01'5 0.6 1011.7 11.2
2014-Aug-29 15:30N 52°03' E 169°53'1 0.2 1006.9 11.4
2014-Aug-29 09:30N 52°03' E 169°51'1 0.5 1004.6 11.6
2014-Aug-29 07:30N 52°04' E 169°49'4 1.0 1002.8 11.8
2014-Aug-29 03:30N 52°03' E 169°43'0 0.0 1000.3 12.0
2014-Aug-29 02:30N 52°03' E 169°43'1 0.6 1000.3 11.9
2014-Aug-29 00:30N 52°02' E 169°42'1 0.4 1000.0 11.4
2014-Aug-28 21:30N 52°01' E 169°40'0 0.1 1000.0 11.2
2014-Aug-28 18:30N 52°01' E 169°39'0 0.0 999.6 11.1
2014-Aug-28 17:30N 52°01' E 169°39'4 1.3 999.6 11.1
2014-Aug-28 14:30N 52°01' E 169°33'3 3.3 1000.3 11.1
2014-Aug-28 13:30N 51°59' E 169°29'0 0.0 1000.3 11.1
2014-Aug-28 12:30N 51°59' E 169°29'2 0.4 1000.6 11.1
2014-Aug-28 07:30N 51°57' E 169°29'0 0.0 1000.5 11.1
2014-Aug-28 04:30N 51°57' E 169°29'3 1.1 1000.0 11.1
2014-Aug-28 01:30N 51°58' E 169°24'0 0.0 1000.5 11.0
2014-Aug-27 23:30N 51°58' E 169°24'7 1.3 1001.1 10.9
2014-Aug-27 18:30N 51°52' E 169°18'2 0.4 1002.5 10.9
2014-Aug-27 13:30N 51°50' E 169°16'1 0.3 1005.7 11.0
2014-Aug-27 09:30N 51°50' E 169°15'2 1.8 1007.6 11.0
2014-Aug-27 08:30N 51°49' E 169°12'6 1.2 1008.1 11.0
2014-Aug-27 03:30N 51°43' E 169°10'2 0.8 1007.0 11.1
2014-Aug-27 01:30N 51°42' E 169°11'0 0.1 1006.9 11.1
2014-Aug-26 21:30N 51°42' E 169°11'0 0.0 1007.8 11.1
2014-Aug-26 20:30N 51°42' E 169°11'0 0.0 1007.9 11.1
2014-Aug-26 19:30N 51°42' E 169°11'1 0.6 1008.1 11.1
2014-Aug-26 18:30N 51°42' E 169°10'1 1.1 1007.9 11.1
2014-Aug-26 17:30N 51°42' E 169°08'5 5.2 1008.2 11.1
2014-Aug-26 16:30N 51°38' E 169°03'4 3.6 1008.3 11.1
2014-Aug-26 15:30N 51°41' E 169°06'8 1.6 1008.6 11.1
2014-Aug-26 10:30N 51°33' E 169°06'1 0.3 1011.0 11.1
2014-Aug-26 08:30N 51°33' E 169°06'0 0.0 1011.5 11.1
2014-Aug-26 07:30N 51°33' E 169°06'2 0.5 1011.3 11.2
2014-Aug-26 02:30N 51°33' E 169°03'2 2.1 1011.8 11.2
2014-Aug-26 01:30N 51°32' E 168°59'8 1.1 1012.0 11.1
2014-Aug-25 18:30N 51°24' E 168°59'2 1.6 1010.4 11.1
2014-Aug-25 17:30N 51°24' E 169°01'0 0.1 1009.8 11.1
2014-Aug-25 16:30N 51°24' E 169°01'1 0.8 1009.2 11.1
2014-Aug-25 15:30N 51°24' E 169°02'6 0.9 1008.9 11.1
2014-Aug-25 09:30N 51°21' E 168°54'0 0.2 1008.1 11.1
2014-Aug-25 08:30N 51°21' E 168°55'0 0.0 1007.7 11.1
2014-Aug-25 07:30N 51°21' E 168°55'9 4.7 1007.1 11.1
2014-Aug-25 05:30N 51°13' E 169°01'0 0.0 1006.9 11.2
2014-Aug-25 03:30N 51°13' E 169°01'0 0.0 1007.2 11.2
2014-Aug-25 02:30N 51°13' E 169°01'1 0.2 1007.5 11.3
2014-Aug-24 22:30N 51°12' E 169°01'2 0.7 1011.5 11.6
2014-Aug-24 19:30N 51°11' E 168°58'2 1.8 1013.3 11.6
2014-Aug-24 18:30N 51°09' E 168°57'0 0.0 1013.6 11.6
2014-Aug-24 17:30N 51°09' E 168°57'1 0.3 1014.2 11.6
2014-Aug-24 15:30N 51°09' E 168°56'6 1.0 1015.6 11.6
2014-Aug-24 09:30N 51°03' E 169°00'1 0.2 1017.2 11.7
2014-Aug-24 06:30N 51°04' E 169°01'1 0.6 1016.5 11.8
2014-Aug-24 04:30N 51°03' E 168°60'1 0.4 1016.0 11.8
2014-Aug-24 02:30N 51°03' E 168°59'2 1.0 1016.4 11.8
2014-Aug-24 00:30N 51°01' E 168°57'6 1.1 1016.7 11.7
2014-Aug-23 18:30N 50°56' E 169°04'1 0.3 1015.5 11.6
2014-Aug-23 16:30N 50°56' E 169°05'0 0.1 1015.2 11.6
2014-Aug-23 12:30N 50°56' E 169°05'3 1.1 1016.1 11.7
2014-Aug-23 09:30N 50°54' E 169°01'6 1.9 1015.9 11.8
2014-Aug-23 06:30N 50°49' E 169°07'0 0.0 1014.8 11.9
2014-Aug-23 03:30N 50°49' E 169°07'2 1.1 1014.2 11.9
2014-Aug-23 01:30N 50°50' E 169°10'1 0.2 1014.2 11.7
2014-Aug-22 19:30N 50°50' E 169°09'1 0.5 1012.8 11.3
2014-Aug-22 17:30N 50°49' E 169°08'1 1.3 1012.0 11.3
2014-Aug-22 16:30N 50°48' E 169°09'   1011.8 11.3

Dump ship's entire track history